South Harwich, Massachusetts
Current Conditions -  °F | °C
As of 1:52 PM on Sunday 21 Dec 2014 (Local Time) from KCQX Reporting Station
Light Rain Light Rain  
Wind Chill: 38°   Ceiling: 4400
Heat Index: 41°   Visibility: 10mi
Dew Point: 33°   Wind: 5mph
Humidity: 73%   Direction: 40°NE
Pressure: 30.26"   Gusts: NA
Location:  41.67°N, 70.04°W
Report Text: KCQX 211852Z AUTO 04004KT 10SM -RA SCT025 BKN044 OVC050 05/01 A3026 RMK AO2 RAB1756E13B31 SLP248 P0000 T00500006
Loading
Personal Weather Stations






























Interactive Weather Map New forecast layout! Learn more

10-Day Weather Forecast

Advertisements
Track Severe Weather on mobile